sensor_id;sensor_type;location;lat;lon;timestamp;P1;durP1;ratioP1;P2;durP2;ratioP2
47455;SDS011;33202;48.512;-2.780;2022-12-20T00:00:47;20.88;;;8.02;;
47455;SDS011;33202;48.512;-2.780;2022-12-20T00:03:13;15.73;;;5.40;;
47455;SDS011;33202;48.512;-2.780;2022-12-20T00:05:39;21.25;;;5.10;;
47455;SDS011;33202;48.512;-2.780;2022-12-20T00:08:06;18.33;;;7.83;;
47455;SDS011;33202;48.512;-2.780;2022-12-20T00:10:35;23.43;;;7.47;;
47455;SDS011;33202;48.512;-2.780;2022-12-20T00:13:02;25.60;;;8.15;;
47455;SDS011;33202;48.512;-2.780;2022-12-20T00:15:28;40.95;;;20.52;;
47455;SDS011;33202;48.512;-2.780;2022-12-20T00:17:55;19.30;;;5.63;;
47455;SDS011;33202;48.512;-2.780;2022-12-20T00:20:21;17.90;;;6.72;;
47455;SDS011;33202;48.512;-2.780;2022-12-20T00:22:47;20.85;;;4.55;;
47455;SDS011;33202;48.512;-2.780;2022-12-20T00:25:13;16.30;;;5.25;;
47455;SDS011;33202;48.512;-2.780;2022-12-20T00:27:39;19.95;;;4.30;;
47455;SDS011;33202;48.512;-2.780;2022-12-20T00:30:05;18.45;;;5.45;;
47455;SDS011;33202;48.512;-2.780;2022-12-20T00:32:31;17.08;;;5.60;;
47455;SDS011;33202;48.512;-2.780;2022-12-20T00:34:57;18.40;;;7.10;;
47455;SDS011;33202;48.512;-2.780;2022-12-20T00:37:23;25.38;;;10.13;;
47455;SDS011;33202;48.512;-2.780;2022-12-20T00:39:49;22.60;;;10.85;;
47455;SDS011;33202;48.512;-2.780;2022-12-20T00:42:15;18.35;;;6.80;;
47455;SDS011;33202;48.512;-2.780;2022-12-20T00:44:41;17.48;;;6.35;;
47455;SDS011;33202;48.512;-2.780;2022-12-20T00:47:07;16.63;;;5.28;;
47455;SDS011;33202;48.512;-2.780;2022-12-20T00:49:34;18.60;;;5.32;;
47455;SDS011;33202;48.512;-2.780;2022-12-20T00:52:00;19.85;;;5.72;;
47455;SDS011;33202;48.512;-2.780;2022-12-20T00:54:26;15.13;;;4.47;;
47455;SDS011;33202;48.512;-2.780;2022-12-20T00:56:52;15.10;;;4.38;;
47455;SDS011;33202;48.512;-2.780;2022-12-20T00:59:18;16.05;;;5.32;;
47455;SDS011;33202;48.512;-2.780;2022-12-20T01:01:45;15.50;;;4.07;;
47455;SDS011;33202;48.512;-2.780;2022-12-20T01:04:11;20.23;;;4.93;;
47455;SDS011;33202;48.512;-2.780;2022-12-20T01:06:38;15.55;;;3.78;;
47455;SDS011;33202;48.512;-2.780;2022-12-20T01:09:04;16.35;;;4.65;;
47455;SDS011;33202;48.512;-2.780;2022-12-20T01:11:31;12.52;;;4.43;;
47455;SDS011;33202;48.512;-2.780;2022-12-20T01:13:59;16.45;;;4.18;;
47455;SDS011;33202;48.512;-2.780;2022-12-20T01:16:30;15.75;;;3.92;;
47455;SDS011;33202;48.512;-2.780;2022-12-20T01:18:57;13.07;;;3.00;;
47455;SDS011;33202;48.512;-2.780;2022-12-20T01:21:24;12.73;;;3.23;;
47455;SDS011;33202;48.512;-2.780;2022-12-20T01:26:18;13.20;;;3.22;;
47455;SDS011;33202;48.512;-2.780;2022-12-20T01:28:45;13.75;;;3.80;;
47455;SDS011;33202;48.512;-2.780;2022-12-20T01:31:12;11.23;;;2.83;;
47455;SDS011;33202;48.512;-2.780;2022-12-20T01:33:40;9.27;;;2.92;;
47455;SDS011;33202;48.512;-2.780;2022-12-20T01:36:07;13.57;;;2.95;;
47455;SDS011;33202;48.512;-2.780;2022-12-20T01:38:33;11.85;;;2.90;;
47455;SDS011;33202;48.512;-2.780;2022-12-20T01:41:00;7.38;;;2.97;;
47455;SDS011;33202;48.512;-2.780;2022-12-20T01:43:48;13.93;;;3.40;;
47455;SDS011;33202;48.512;-2.780;2022-12-20T01:46:12;11.30;;;2.70;;
47455;SDS011;33202;48.512;-2.780;2022-12-20T01:48:38;7.10;;;2.40;;
47455;SDS011;33202;48.512;-2.780;2022-12-20T01:51:05;7.82;;;2.30;;
47455;SDS011;33202;48.512;-2.780;2022-12-20T01:53:31;8.02;;;2.38;;
47455;SDS011;33202;48.512;-2.780;2022-12-20T01:56:01;8.77;;;2.00;;
47455;SDS011;33202;48.512;-2.780;2022-12-20T01:58:28;6.63;;;2.22;;
47455;SDS011;33202;48.512;-2.780;2022-12-20T02:00:55;6.10;;;2.17;;
47455;SDS011;33202;48.512;-2.780;2022-12-20T02:03:21;7.70;;;1.90;;
47455;SDS011;33202;48.512;-2.780;2022-12-20T02:05:47;8.10;;;2.13;;
47455;SDS011;33202;48.512;-2.780;2022-12-20T02:08:14;6.50;;;2.05;;
47455;SDS011;33202;48.512;-2.780;2022-12-20T02:10:50;4.10;;;1.50;;
47455;SDS011;33202;48.512;-2.780;2022-12-20T02:13:28;6.68;;;1.77;;
47455;SDS011;33202;48.512;-2.780;2022-12-20T02:18:36;7.03;;;1.65;;
47455;SDS011;33202;48.512;-2.780;2022-12-20T02:26:06;6.70;;;2.00;;
47455;SDS011;33202;48.512;-2.780;2022-12-20T02:31:20;7.63;;;2.20;;
47455;SDS011;33202;48.512;-2.780;2022-12-20T02:33:49;10.02;;;2.95;;
47455;SDS011;33202;48.512;-2.780;2022-12-20T02:36:17;10.10;;;2.38;;
47455;SDS011;33202;48.512;-2.780;2022-12-20T02:38:43;10.07;;;2.53;;
47455;SDS011;33202;48.512;-2.780;2022-12-20T02:43:36;13.35;;;2.90;;
47455;SDS011;33202;48.512;-2.780;2022-12-20T02:46:41;10.73;;;2.97;;
47455;SDS011;33202;48.512;-2.780;2022-12-20T02:49:09;12.00;;;2.53;;
47455;SDS011;33202;48.512;-2.780;2022-12-20T02:51:37;13.38;;;3.45;;
47455;SDS011;33202;48.512;-2.780;2022-12-20T02:54:04;9.63;;;2.80;;
47455;SDS011;33202;48.512;-2.780;2022-12-20T02:56:41;7.55;;;2.65;;
47455;SDS011;33202;48.512;-2.780;2022-12-20T02:59:10;10.73;;;2.47;;
47455;SDS011;33202;48.512;-2.780;2022-12-20T03:01:38;10.45;;;2.40;;
47455;SDS011;33202;48.512;-2.780;2022-12-20T03:04:06;12.65;;;3.35;;
47455;SDS011;33202;48.512;-2.780;2022-12-20T03:06:32;7.45;;;2.63;;
47455;SDS011;33202;48.512;-2.780;2022-12-20T03:08:59;9.00;;;2.47;;
47455;SDS011;33202;48.512;-2.780;2022-12-20T03:11:25;16.20;;;2.47;;
47455;SDS011;33202;48.512;-2.780;2022-12-20T03:13:51;15.18;;;2.55;;
47455;SDS011;33202;48.512;-2.780;2022-12-20T03:16:17;9.85;;;2.80;;
47455;SDS011;33202;48.512;-2.780;2022-12-20T03:18:43;9.65;;;1.90;;
47455;SDS011;33202;48.512;-2.780;2022-12-20T03:21:10;8.10;;;2.65;;
47455;SDS011;33202;48.512;-2.780;2022-12-20T03:23:36;13.25;;;2.60;;
47455;SDS011;33202;48.512;-2.780;2022-12-20T03:26:02;13.10;;;2.28;;
47455;SDS011;33202;48.512;-2.780;2022-12-20T03:28:28;7.95;;;1.92;;
47455;SDS011;33202;48.512;-2.780;2022-12-20T03:30:54;7.20;;;2.10;;
47455;SDS011;33202;48.512;-2.780;2022-12-20T03:33:20;7.40;;;2.30;;
47455;SDS011;33202;48.512;-2.780;2022-12-20T03:35:46;7.15;;;1.77;;
47455;SDS011;33202;48.512;-2.780;2022-12-20T03:38:13;3.90;;;1.48;;
47455;SDS011;33202;48.512;-2.780;2022-12-20T03:40:39;5.07;;;1.50;;
47455;SDS011;33202;48.512;-2.780;2022-12-20T03:43:05;5.20;;;1.45;;
47455;SDS011;33202;48.512;-2.780;2022-12-20T03:45:31;3.35;;;1.25;;
47455;SDS011;33202;48.512;-2.780;2022-12-20T03:47:57;4.32;;;1.40;;
47455;SDS011;33202;48.512;-2.780;2022-12-20T03:50:23;4.28;;;1.30;;
47455;SDS011;33202;48.512;-2.780;2022-12-20T03:52:49;4.40;;;1.33;;
47455;SDS011;33202;48.512;-2.780;2022-12-20T03:55:15;3.53;;;1.77;;
47455;SDS011;33202;48.512;-2.780;2022-12-20T03:57:41;3.47;;;1.13;;
47455;SDS011;33202;48.512;-2.780;2022-12-20T04:00:07;3.38;;;1.17;;
47455;SDS011;33202;48.512;-2.780;2022-12-20T04:02:33;1.80;;;1.02;;
47455;SDS011;33202;48.512;-2.780;2022-12-20T04:04:59;2.90;;;1.10;;
47455;SDS011;33202;48.512;-2.780;2022-12-20T04:07:25;2.25;;;1.00;;
47455;SDS011;33202;48.512;-2.780;2022-12-20T04:09:51;2.85;;;0.90;;
47455;SDS011;33202;48.512;-2.780;2022-12-20T04:12:17;2.40;;;1.10;;
47455;SDS011;33202;48.512;-2.780;2022-12-20T04:14:43;2.17;;;0.98;;
47455;SDS011;33202;48.512;-2.780;2022-12-20T04:17:09;1.83;;;0.80;;
47455;SDS011;33202;48.512;-2.780;2022-12-20T04:19:35;1.83;;;0.90;;
47455;SDS011;33202;48.512;-2.780;2022-12-20T04:22:01;2.42;;;1.10;;
47455;SDS011;33202;48.512;-2.780;2022-12-20T04:24:27;3.78;;;1.08;;
47455;SDS011;33202;48.512;-2.780;2022-12-20T04:26:53;2.05;;;1.00;;
47455;SDS011;33202;48.512;-2.780;2022-12-20T04:29:19;2.05;;;0.90;;
47455;SDS011;33202;48.512;-2.780;2022-12-20T04:31:45;4.88;;;1.25;;
47455;SDS011;33202;48.512;-2.780;2022-12-20T04:34:11;4.03;;;1.15;;
47455;SDS011;33202;48.512;-2.780;2022-12-20T04:36:37;5.72;;;1.00;;
47455;SDS011;33202;48.512;-2.780;2022-12-20T04:39:03;2.03;;;1.08;;
47455;SDS011;33202;48.512;-2.780;2022-12-20T04:41:30;4.03;;;1.10;;
47455;SDS011;33202;48.512;-2.780;2022-12-20T04:43:56;3.42;;;1.10;;
47455;SDS011;33202;48.512;-2.780;2022-12-20T04:46:23;1.73;;;0.80;;
47455;SDS011;33202;48.512;-2.780;2022-12-20T04:48:49;6.60;;;1.23;;
47455;SDS011;33202;48.512;-2.780;2022-12-20T04:51:16;4.65;;;1.00;;
47455;SDS011;33202;48.512;-2.780;2022-12-20T04:53:42;2.95;;;1.27;;
47455;SDS011;33202;48.512;-2.780;2022-12-20T04:56:18;3.28;;;0.95;;
47455;SDS011;33202;48.512;-2.780;2022-12-20T04:58:44;4.65;;;1.20;;
47455;SDS011;33202;48.512;-2.780;2022-12-20T05:01:10;2.90;;;1.17;;
47455;SDS011;33202;48.512;-2.780;2022-12-20T05:03:37;2.83;;;1.00;;
47455;SDS011;33202;48.512;-2.780;2022-12-20T05:06:03;3.65;;;1.10;;
47455;SDS011;33202;48.512;-2.780;2022-12-20T05:08:29;2.38;;;0.90;;
47455;SDS011;33202;48.512;-2.780;2022-12-20T05:10:55;4.15;;;0.98;;
47455;SDS011;33202;48.512;-2.780;2022-12-20T05:13:21;3.53;;;1.05;;
47455;SDS011;33202;48.512;-2.780;2022-12-20T05:15:51;4.13;;;1.00;;
47455;SDS011;33202;48.512;-2.780;2022-12-20T05:18:17;2.22;;;0.95;;
47455;SDS011;33202;48.512;-2.780;2022-12-20T05:20:43;2.53;;;0.98;;
47455;SDS011;33202;48.512;-2.780;2022-12-20T05:23:10;3.22;;;1.10;;
47455;SDS011;33202;48.512;-2.780;2022-12-20T05:25:54;3.63;;;1.00;;
47455;SDS011;33202;48.512;-2.780;2022-12-20T05:28:39;2.50;;;1.20;;
47455;SDS011;33202;48.512;-2.780;2022-12-20T05:31:05;2.90;;;1.33;;
47455;SDS011;33202;48.512;-2.780;2022-12-20T05:33:31;4.32;;;1.25;;
47455;SDS011;33202;48.512;-2.780;2022-12-20T05:35:57;3.30;;;1.10;;
47455;SDS011;33202;48.512;-2.780;2022-12-20T05:38:23;3.53;;;1.08;;
47455;SDS011;33202;48.512;-2.780;2022-12-20T05:40:50;1.85;;;0.75;;
47455;SDS011;33202;48.512;-2.780;2022-12-20T05:43:16;3.38;;;0.88;;
47455;SDS011;33202;48.512;-2.780;2022-12-20T05:45:46;4.15;;;1.20;;
47455;SDS011;33202;48.512;-2.780;2022-12-20T05:48:13;3.20;;;1.08;;
47455;SDS011;33202;48.512;-2.780;2022-12-20T05:50:39;5.60;;;1.33;;
47455;SDS011;33202;48.512;-2.780;2022-12-20T05:53:05;4.95;;;1.70;;
47455;SDS011;33202;48.512;-2.780;2022-12-20T05:55:31;4.13;;;1.48;;
47455;SDS011;33202;48.512;-2.780;2022-12-20T05:57:57;6.22;;;2.05;;
47455;SDS011;33202;48.512;-2.780;2022-12-20T06:00:23;7.82;;;1.77;;
47455;SDS011;33202;48.512;-2.780;2022-12-20T06:02:49;7.25;;;1.58;;
47455;SDS011;33202;48.512;-2.780;2022-12-20T06:05:15;7.95;;;2.13;;
47455;SDS011;33202;48.512;-2.780;2022-12-20T06:07:41;6.22;;;3.03;;
47455;SDS011;33202;48.512;-2.780;2022-12-20T06:10:08;13.23;;;4.82;;
47455;SDS011;33202;48.512;-2.780;2022-12-20T06:12:35;10.45;;;3.80;;
47455;SDS011;33202;48.512;-2.780;2022-12-20T06:15:01;7.13;;;2.80;;
47455;SDS011;33202;48.512;-2.780;2022-12-20T06:17:27;11.05;;;3.08;;
47455;SDS011;33202;48.512;-2.780;2022-12-20T06:19:53;10.35;;;3.25;;
47455;SDS011;33202;48.512;-2.780;2022-12-20T06:22:19;6.60;;;2.60;;
47455;SDS011;33202;48.512;-2.780;2022-12-20T06:24:45;8.73;;;2.55;;
47455;SDS011;33202;48.512;-2.780;2022-12-20T06:27:11;5.32;;;2.65;;
47455;SDS011;33202;48.512;-2.780;2022-12-20T06:29:37;8.00;;;3.08;;
47455;SDS011;33202;48.512;-2.780;2022-12-20T06:32:03;7.20;;;2.53;;
47455;SDS011;33202;48.512;-2.780;2022-12-20T06:34:30;6.78;;;2.40;;
47455;SDS011;33202;48.512;-2.780;2022-12-20T06:36:56;7.18;;;2.40;;
47455;SDS011;33202;48.512;-2.780;2022-12-20T06:39:22;8.13;;;2.00;;
47455;SDS011;33202;48.512;-2.780;2022-12-20T06:41:48;8.60;;;1.83;;
47455;SDS011;33202;48.512;-2.780;2022-12-20T06:44:14;7.60;;;1.98;;
47455;SDS011;33202;48.512;-2.780;2022-12-20T06:46:40;6.18;;;2.00;;
47455;SDS011;33202;48.512;-2.780;2022-12-20T06:49:06;8.32;;;1.98;;
47455;SDS011;33202;48.512;-2.780;2022-12-20T06:51:32;3.55;;;1.60;;
47455;SDS011;33202;48.512;-2.780;2022-12-20T06:53:58;5.55;;;1.50;;
47455;SDS011;33202;48.512;-2.780;2022-12-20T06:56:24;4.30;;;1.55;;
47455;SDS011;33202;48.512;-2.780;2022-12-20T06:58:50;6.63;;;1.60;;
47455;SDS011;33202;48.512;-2.780;2022-12-20T07:01:16;7.40;;;1.77;;
47455;SDS011;33202;48.512;-2.780;2022-12-20T07:03:42;6.47;;;1.90;;
47455;SDS011;33202;48.512;-2.780;2022-12-20T07:06:08;4.97;;;1.52;;
47455;SDS011;33202;48.512;-2.780;2022-12-20T07:08:34;5.15;;;1.40;;
47455;SDS011;33202;48.512;-2.780;2022-12-20T07:11:06;8.50;;;2.33;;
47455;SDS011;33202;48.512;-2.780;2022-12-20T07:13:33;6.55;;;2.35;;
47455;SDS011;33202;48.512;-2.780;2022-12-20T07:16:00;5.30;;;1.60;;
47455;SDS011;33202;48.512;-2.780;2022-12-20T07:18:26;6.38;;;1.85;;
47455;SDS011;33202;48.512;-2.780;2022-12-20T07:20:52;5.63;;;1.70;;
47455;SDS011;33202;48.512;-2.780;2022-12-20T07:23:18;6.00;;;2.20;;
47455;SDS011;33202;48.512;-2.780;2022-12-20T07:25:58;5.53;;;1.95;;
47455;SDS011;33202;48.512;-2.780;2022-12-20T07:28:24;9.43;;;2.00;;
47455;SDS011;33202;48.512;-2.780;2022-12-20T07:30:51;10.00;;;1.95;;
47455;SDS011;33202;48.512;-2.780;2022-12-20T07:33:17;8.98;;;2.75;;
47455;SDS011;33202;48.512;-2.780;2022-12-20T07:35:43;11.20;;;2.83;;
47455;SDS011;33202;48.512;-2.780;2022-12-20T07:40:38;7.95;;;2.80;;
47455;SDS011;33202;48.512;-2.780;2022-12-20T07:43:05;11.38;;;2.90;;
47455;SDS011;33202;48.512;-2.780;2022-12-20T07:45:31;11.65;;;3.60;;
47455;SDS011;33202;48.512;-2.780;2022-12-20T07:47:58;7.77;;;2.80;;
47455;SDS011;33202;48.512;-2.780;2022-12-20T07:50:25;7.63;;;2.67;;
47455;SDS011;33202;48.512;-2.780;2022-12-20T07:55:17;8.48;;;3.17;;
47455;SDS011;33202;48.512;-2.780;2022-12-20T07:57:48;7.25;;;2.83;;
47455;SDS011;33202;48.512;-2.780;2022-12-20T08:00:15;6.88;;;2.60;;
47455;SDS011;33202;48.512;-2.780;2022-12-20T08:02:45;6.70;;;3.00;;
47455;SDS011;33202;48.512;-2.780;2022-12-20T08:05:12;5.80;;;2.20;;
47455;SDS011;33202;48.512;-2.780;2022-12-20T08:07:39;7.40;;;2.63;;
47455;SDS011;33202;48.512;-2.780;2022-12-20T08:10:06;6.30;;;2.60;;
47455;SDS011;33202;48.512;-2.780;2022-12-20T08:12:34;6.68;;;2.33;;
47455;SDS011;33202;48.512;-2.780;2022-12-20T08:15:00;5.03;;;2.20;;
47455;SDS011;33202;48.512;-2.780;2022-12-20T08:17:26;4.15;;;2.70;;
47455;SDS011;33202;48.512;-2.780;2022-12-20T08:19:52;4.28;;;2.60;;
47455;SDS011;33202;48.512;-2.780;2022-12-20T08:22:18;5.75;;;2.63;;
47455;SDS011;33202;48.512;-2.780;2022-12-20T08:24:44;5.20;;;2.58;;
47455;SDS011;33202;48.512;-2.780;2022-12-20T08:27:10;4.43;;;2.35;;
47455;SDS011;33202;48.512;-2.780;2022-12-20T08:29:36;4.03;;;2.70;;
47455;SDS011;33202;48.512;-2.780;2022-12-20T08:32:03;9.63;;;2.90;;
47455;SDS011;33202;48.512;-2.780;2022-12-20T08:34:29;5.93;;;2.70;;
47455;SDS011;33202;48.512;-2.780;2022-12-20T08:36:55;5.90;;;3.30;;
47455;SDS011;33202;48.512;-2.780;2022-12-20T08:39:21;4.75;;;3.03;;
47455;SDS011;33202;48.512;-2.780;2022-12-20T08:41:47;5.90;;;3.08;;
47455;SDS011;33202;48.512;-2.780;2022-12-20T08:44:13;7.65;;;3.83;;
47455;SDS011;33202;48.512;-2.780;2022-12-20T08:46:39;4.25;;;2.30;;
47455;SDS011;33202;48.512;-2.780;2022-12-20T08:49:05;8.32;;;2.92;;
47455;SDS011;33202;48.512;-2.780;2022-12-20T08:51:31;4.40;;;2.50;;
47455;SDS011;33202;48.512;-2.780;2022-12-20T08:53:57;6.18;;;2.50;;
47455;SDS011;33202;48.512;-2.780;2022-12-20T08:56:23;5.15;;;2.50;;
47455;SDS011;33202;48.512;-2.780;2022-12-20T08:58:49;7.05;;;2.20;;
47455;SDS011;33202;48.512;-2.780;2022-12-20T09:01:16;5.30;;;2.30;;
47455;SDS011;33202;48.512;-2.780;2022-12-20T09:03:43;4.55;;;1.75;;
47455;SDS011;33202;48.512;-2.780;2022-12-20T09:06:10;4.82;;;2.15;;
47455;SDS011;33202;48.512;-2.780;2022-12-20T09:08:37;5.60;;;1.73;;
47455;SDS011;33202;48.512;-2.780;2022-12-20T09:11:08;4.05;;;1.65;;
47455;SDS011;33202;48.512;-2.780;2022-12-20T09:13:36;4.45;;;1.73;;
47455;SDS011;33202;48.512;-2.780;2022-12-20T09:16:02;4.68;;;1.27;;
47455;SDS011;33202;48.512;-2.780;2022-12-20T09:18:29;3.83;;;1.50;;
47455;SDS011;33202;48.512;-2.780;2022-12-20T09:20:58;3.97;;;1.40;;
47455;SDS011;33202;48.512;-2.780;2022-12-20T09:23:25;3.65;;;1.17;;
47455;SDS011;33202;48.512;-2.780;2022-12-20T09:25:51;3.72;;;1.15;;
47455;SDS011;33202;48.512;-2.780;2022-12-20T09:28:17;4.15;;;1.42;;
47455;SDS011;33202;48.512;-2.780;2022-12-20T09:30:44;2.13;;;1.05;;
47455;SDS011;33202;48.512;-2.780;2022-12-20T09:33:10;4.45;;;1.20;;
47455;SDS011;33202;48.512;-2.780;2022-12-20T09:35:36;3.75;;;1.50;;
47455;SDS011;33202;48.512;-2.780;2022-12-20T09:38:02;5.90;;;1.50;;
47455;SDS011;33202;48.512;-2.780;2022-12-20T09:40:29;2.58;;;1.15;;
47455;SDS011;33202;48.512;-2.780;2022-12-20T09:42:56;5.38;;;1.27;;
47455;SDS011;33202;48.512;-2.780;2022-12-20T09:45:27;1.92;;;1.15;;
47455;SDS011;33202;48.512;-2.780;2022-12-20T09:47:55;4.55;;;1.33;;
47455;SDS011;33202;48.512;-2.780;2022-12-20T09:50:26;4.55;;;1.20;;
47455;SDS011;33202;48.512;-2.780;2022-12-20T09:53:03;3.30;;;1.13;;
47455;SDS011;33202;48.512;-2.780;2022-12-20T09:55:35;2.80;;;1.23;;
47455;SDS011;33202;48.512;-2.780;2022-12-20T10:01:16;3.10;;;1.42;;
47455;SDS011;33202;48.512;-2.780;2022-12-20T10:03:44;3.65;;;1.42;;
47455;SDS011;33202;48.512;-2.780;2022-12-20T10:22:00;3.75;;;1.70;;
47455;SDS011;33202;48.512;-2.780;2022-12-20T10:24:30;4.65;;;1.88;;
47455;SDS011;33202;48.512;-2.780;2022-12-20T10:26:57;3.15;;;1.52;;
47455;SDS011;33202;48.512;-2.780;2022-12-20T10:29:27;4.13;;;1.73;;
47455;SDS011;33202;48.512;-2.780;2022-12-20T10:31:53;6.15;;;2.80;;
47455;SDS011;33202;48.512;-2.780;2022-12-20T10:34:23;4.07;;;2.67;;
47455;SDS011;33202;48.512;-2.780;2022-12-20T10:36:50;6.50;;;3.83;;
47455;SDS011;33202;48.512;-2.780;2022-12-20T10:39:42;8.00;;;4.22;;
47455;SDS011;33202;48.512;-2.780;2022-12-20T10:44:49;9.25;;;4.03;;
47455;SDS011;33202;48.512;-2.780;2022-12-20T10:47:59;9.68;;;3.95;;
47455;SDS011;33202;48.512;-2.780;2022-12-20T10:50:12;8.15;;;3.63;;
47455;SDS011;33202;48.512;-2.780;2022-12-20T10:52:39;7.75;;;3.33;;
47455;SDS011;33202;48.512;-2.780;2022-12-20T10:57:50;7.05;;;2.70;;
47455;SDS011;33202;48.512;-2.780;2022-12-20T11:00:26;5.93;;;2.90;;
47455;SDS011;33202;48.512;-2.780;2022-12-20T11:05:38;7.95;;;3.05;;
47455;SDS011;33202;48.512;-2.780;2022-12-20T11:08:15;7.75;;;3.28;;
47455;SDS011;33202;48.512;-2.780;2022-12-20T11:10:42;6.80;;;4.05;;
47455;SDS011;33202;48.512;-2.780;2022-12-20T11:13:18;5.57;;;3.58;;
47455;SDS011;33202;48.512;-2.780;2022-12-20T11:15:48;6.20;;;3.08;;
47455;SDS011;33202;48.512;-2.780;2022-12-20T11:18:27;7.78;;;2.80;;
47455;SDS011;33202;48.512;-2.780;2022-12-20T11:20:59;6.10;;;2.63;;
47455;SDS011;33202;48.512;-2.780;2022-12-20T11:36:55;5.30;;;2.10;;
47455;SDS011;33202;48.512;-2.780;2022-12-20T11:38:58;6.38;;;1.90;;
47455;SDS011;33202;48.512;-2.780;2022-12-20T11:51:58;6.75;;;2.40;;
47455;SDS011;33202;48.512;-2.780;2022-12-20T11:54:28;5.32;;;1.92;;
47455;SDS011;33202;48.512;-2.780;2022-12-20T11:56:57;8.07;;;2.13;;
47455;SDS011;33202;48.512;-2.780;2022-12-20T12:02:01;2.65;;;1.58;;
47455;SDS011;33202;48.512;-2.780;2022-12-20T12:04:30;4.15;;;1.80;;
47455;SDS011;33202;48.512;-2.780;2022-12-20T12:09:24;6.45;;;2.00;;
47455;SDS011;33202;48.512;-2.780;2022-12-20T12:11:59;10.15;;;2.80;;
47455;SDS011;33202;48.512;-2.780;2022-12-20T12:17:12;5.97;;;2.15;;
47455;SDS011;33202;48.512;-2.780;2022-12-20T12:19:42;7.80;;;2.35;;
47455;SDS011;33202;48.512;-2.780;2022-12-20T12:22:13;7.88;;;2.20;;
47455;SDS011;33202;48.512;-2.780;2022-12-20T12:24:42;7.68;;;1.98;;
47455;SDS011;33202;48.512;-2.780;2022-12-20T12:27:20;6.80;;;2.95;;
47455;SDS011;33202;48.512;-2.780;2022-12-20T12:29:46;10.75;;;3.45;;
47455;SDS011;33202;48.512;-2.780;2022-12-20T12:34:50;7.30;;;2.60;;
47455;SDS011;33202;48.512;-2.780;2022-12-20T12:50:49;8.43;;;2.67;;
47455;SDS011;33202;48.512;-2.780;2022-12-20T12:53:50;7.03;;;2.37;;
47455;SDS011;33202;48.512;-2.780;2022-12-20T13:01:49;8.68;;;2.60;;
47455;SDS011;33202;48.512;-2.780;2022-12-20T13:11:44;6.28;;;2.05;;
47455;SDS011;33202;48.512;-2.780;2022-12-20T13:16:43;10.18;;;3.28;;
47455;SDS011;33202;48.512;-2.780;2022-12-20T13:19:13;10.95;;;3.53;;
47455;SDS011;33202;48.512;-2.780;2022-12-20T13:21:40;7.22;;;3.53;;
47455;SDS011;33202;48.512;-2.780;2022-12-20T13:26:52;11.88;;;3.33;;
47455;SDS011;33202;48.512;-2.780;2022-12-20T13:29:54;9.18;;;2.97;;
47455;SDS011;33202;48.512;-2.780;2022-12-20T13:40:21;9.60;;;2.72;;
47455;SDS011;33202;48.512;-2.780;2022-12-20T13:42:48;6.75;;;2.63;;
47455;SDS011;33202;48.512;-2.780;2022-12-20T13:45:16;7.10;;;2.80;;
47455;SDS011;33202;48.512;-2.780;2022-12-20T13:47:44;4.90;;;2.05;;
47455;SDS011;33202;48.512;-2.780;2022-12-20T13:50:44;4.40;;;1.98;;
47455;SDS011;33202;48.512;-2.780;2022-12-20T13:53:04;7.43;;;1.83;;
47455;SDS011;33202;48.512;-2.780;2022-12-20T13:55:37;5.18;;;1.90;;
47455;SDS011;33202;48.512;-2.780;2022-12-20T13:58:09;7.88;;;2.40;;
47455;SDS011;33202;48.512;-2.780;2022-12-20T14:00:36;3.00;;;1.58;;
47455;SDS011;33202;48.512;-2.780;2022-12-20T14:03:03;9.68;;;1.80;;
47455;SDS011;33202;48.512;-2.780;2022-12-20T14:05:35;6.07;;;2.10;;
47455;SDS011;33202;48.512;-2.780;2022-12-20T14:08:23;4.63;;;1.67;;
47455;SDS011;33202;48.512;-2.780;2022-12-20T14:10:48;4.80;;;2.05;;
47455;SDS011;33202;48.512;-2.780;2022-12-20T14:13:21;5.53;;;1.85;;
47455;SDS011;33202;48.512;-2.780;2022-12-20T14:15:47;6.50;;;1.70;;
47455;SDS011;33202;48.512;-2.780;2022-12-20T14:18:18;5.65;;;2.20;;
47455;SDS011;33202;48.512;-2.780;2022-12-20T14:20:46;5.47;;;2.10;;
47455;SDS011;33202;48.512;-2.780;2022-12-20T14:23:15;5.47;;;2.10;;
47455;SDS011;33202;48.512;-2.780;2022-12-20T14:25:43;6.35;;;2.63;;
47455;SDS011;33202;48.512;-2.780;2022-12-20T14:28:16;6.20;;;2.30;;
47455;SDS011;33202;48.512;-2.780;2022-12-20T14:30:43;5.65;;;2.40;;
47455;SDS011;33202;48.512;-2.780;2022-12-20T14:33:52;6.72;;;2.08;;
47455;SDS011;33202;48.512;-2.780;2022-12-20T14:38:41;4.65;;;2.03;;
47455;SDS011;33202;48.512;-2.780;2022-12-20T14:43:56;6.10;;;1.80;;
47455;SDS011;33202;48.512;-2.780;2022-12-20T14:46:22;6.50;;;1.65;;
47455;SDS011;33202;48.512;-2.780;2022-12-20T14:48:49;4.78;;;1.80;;
47455;SDS011;33202;48.512;-2.780;2022-12-20T14:51:29;7.20;;;2.35;;
47455;SDS011;33202;48.512;-2.780;2022-12-20T14:53:56;5.30;;;2.00;;
47455;SDS011;33202;48.512;-2.780;2022-12-20T14:59:35;7.03;;;2.13;;
47455;SDS011;33202;48.512;-2.780;2022-12-20T15:01:36;4.38;;;1.85;;
47455;SDS011;33202;48.512;-2.780;2022-12-20T15:04:17;6.20;;;2.33;;
47455;SDS011;33202;48.512;-2.780;2022-12-20T15:06:45;4.97;;;2.35;;
47455;SDS011;33202;48.512;-2.780;2022-12-20T15:09:15;4.75;;;2.70;;
47455;SDS011;33202;48.512;-2.780;2022-12-20T15:11:41;3.72;;;1.70;;
47455;SDS011;33202;48.512;-2.780;2022-12-20T15:14:51;6.10;;;1.90;;
47455;SDS011;33202;48.512;-2.780;2022-12-20T15:17:08;7.32;;;2.60;;
47455;SDS011;33202;48.512;-2.780;2022-12-20T15:19:34;5.40;;;2.58;;
47455;SDS011;33202;48.512;-2.780;2022-12-20T15:22:00;7.03;;;2.38;;
47455;SDS011;33202;48.512;-2.780;2022-12-20T15:24:27;7.95;;;2.53;;
47455;SDS011;33202;48.512;-2.780;2022-12-20T15:26:54;4.25;;;1.90;;
47455;SDS011;33202;48.512;-2.780;2022-12-20T15:29:21;4.75;;;2.40;;
47455;SDS011;33202;48.512;-2.780;2022-12-20T15:31:48;7.47;;;2.22;;
47455;SDS011;33202;48.512;-2.780;2022-12-20T15:34:24;5.32;;;2.00;;
47455;SDS011;33202;48.512;-2.780;2022-12-20T15:36:52;6.15;;;2.13;;
47455;SDS011;33202;48.512;-2.780;2022-12-20T15:39:18;4.60;;;2.05;;
47455;SDS011;33202;48.512;-2.780;2022-12-20T15:41:46;4.88;;;1.88;;
47455;SDS011;33202;48.512;-2.780;2022-12-20T15:44:19;4.47;;;2.08;;
47455;SDS011;33202;48.512;-2.780;2022-12-20T15:46:46;5.88;;;1.92;;
47455;SDS011;33202;48.512;-2.780;2022-12-20T15:49:15;3.72;;;1.85;;
47455;SDS011;33202;48.512;-2.780;2022-12-20T15:51:42;3.70;;;1.80;;
47455;SDS011;33202;48.512;-2.780;2022-12-20T15:56:52;4.97;;;2.00;;
47455;SDS011;33202;48.512;-2.780;2022-12-20T15:59:18;6.13;;;2.30;;
47455;SDS011;33202;48.512;-2.780;2022-12-20T16:01:46;6.35;;;2.65;;
47455;SDS011;33202;48.512;-2.780;2022-12-20T16:04:18;5.95;;;2.70;;
47455;SDS011;33202;48.512;-2.780;2022-12-20T16:06:46;6.35;;;2.53;;
47455;SDS011;33202;48.512;-2.780;2022-12-20T16:09:12;8.30;;;3.70;;
47455;SDS011;33202;48.512;-2.780;2022-12-20T16:11:39;6.50;;;3.63;;
47455;SDS011;33202;48.512;-2.780;2022-12-20T16:14:05;13.20;;;4.10;;
47455;SDS011;33202;48.512;-2.780;2022-12-20T16:16:33;8.57;;;4.47;;
47455;SDS011;33202;48.512;-2.780;2022-12-20T16:19:03;7.32;;;3.78;;
47455;SDS011;33202;48.512;-2.780;2022-12-20T16:21:30;8.82;;;4.05;;
47455;SDS011;33202;48.512;-2.780;2022-12-20T16:23:57;8.73;;;4.75;;
47455;SDS011;33202;48.512;-2.780;2022-12-20T16:26:24;9.93;;;4.70;;
47455;SDS011;33202;48.512;-2.780;2022-12-20T16:28:53;6.20;;;3.72;;
47455;SDS011;33202;48.512;-2.780;2022-12-20T16:31:24;8.85;;;3.70;;
47455;SDS011;33202;48.512;-2.780;2022-12-20T16:33:50;8.43;;;4.28;;
47455;SDS011;33202;48.512;-2.780;2022-12-20T16:36:17;8.87;;;4.60;;
47455;SDS011;33202;48.512;-2.780;2022-12-20T16:38:43;6.57;;;4.07;;
47455;SDS011;33202;48.512;-2.780;2022-12-20T16:41:28;9.57;;;4.55;;
47455;SDS011;33202;48.512;-2.780;2022-12-20T16:43:55;11.68;;;5.28;;
47455;SDS011;33202;48.512;-2.780;2022-12-20T16:46:22;8.77;;;4.50;;
47455;SDS011;33202;48.512;-2.780;2022-12-20T16:48:50;10.10;;;4.45;;